sensor_id;sensor_type;location;lat;lon;timestamp;P1;durP1;ratioP1;P2;durP2;ratioP2
54247;SDS011;40161;39.768;2.722;2023-08-06T00:01:47;4.28;;;1.40;;
54247;SDS011;40161;39.768;2.722;2023-08-06T00:04:13;3.75;;;1.25;;
54247;SDS011;40161;39.768;2.722;2023-08-06T00:06:38;3.55;;;1.05;;
54247;SDS011;40161;39.768;2.722;2023-08-06T00:09:04;3.03;;;1.20;;
54247;SDS011;40161;39.768;2.722;2023-08-06T00:11:29;2.38;;;1.20;;
54247;SDS011;40161;39.768;2.722;2023-08-06T00:13:55;2.88;;;1.17;;
54247;SDS011;40161;39.768;2.722;2023-08-06T00:16:20;3.35;;;0.98;;
54247;SDS011;40161;39.768;2.722;2023-08-06T00:18:46;4.43;;;1.45;;
54247;SDS011;40161;39.768;2.722;2023-08-06T00:21:11;4.68;;;1.65;;
54247;SDS011;40161;39.768;2.722;2023-08-06T00:23:38;3.67;;;1.50;;
54247;SDS011;40161;39.768;2.722;2023-08-06T00:26:04;4.45;;;1.40;;
54247;SDS011;40161;39.768;2.722;2023-08-06T00:28:30;2.88;;;1.42;;
54247;SDS011;40161;39.768;2.722;2023-08-06T00:30:55;4.20;;;1.40;;
54247;SDS011;40161;39.768;2.722;2023-08-06T00:33:24;4.30;;;2.00;;
54247;SDS011;40161;39.768;2.722;2023-08-06T00:35:49;4.60;;;1.90;;
54247;SDS011;40161;39.768;2.722;2023-08-06T00:38:15;4.82;;;1.60;;
54247;SDS011;40161;39.768;2.722;2023-08-06T00:40:41;4.25;;;1.58;;
54247;SDS011;40161;39.768;2.722;2023-08-06T00:43:06;4.63;;;1.48;;
54247;SDS011;40161;39.768;2.722;2023-08-06T00:45:36;3.08;;;1.42;;
54247;SDS011;40161;39.768;2.722;2023-08-06T00:48:02;2.08;;;1.10;;
54247;SDS011;40161;39.768;2.722;2023-08-06T00:50:29;3.40;;;1.17;;
54247;SDS011;40161;39.768;2.722;2023-08-06T00:52:55;3.60;;;1.40;;
54247;SDS011;40161;39.768;2.722;2023-08-06T00:55:21;5.53;;;2.10;;
54247;SDS011;40161;39.768;2.722;2023-08-06T00:57:47;3.42;;;1.55;;
54247;SDS011;40161;39.768;2.722;2023-08-06T01:00:13;3.72;;;1.58;;
54247;SDS011;40161;39.768;2.722;2023-08-06T01:02:39;3.13;;;1.27;;
54247;SDS011;40161;39.768;2.722;2023-08-06T01:05:04;4.50;;;1.52;;
54247;SDS011;40161;39.768;2.722;2023-08-06T01:07:37;3.20;;;1.25;;
54247;SDS011;40161;39.768;2.722;2023-08-06T01:13:22;3.88;;;1.58;;
54247;SDS011;40161;39.768;2.722;2023-08-06T01:15:54;2.83;;;1.30;;
54247;SDS011;40161;39.768;2.722;2023-08-06T01:18:23;3.13;;;1.50;;
54247;SDS011;40161;39.768;2.722;2023-08-06T01:20:49;3.30;;;1.55;;
54247;SDS011;40161;39.768;2.722;2023-08-06T01:23:18;3.63;;;1.48;;
54247;SDS011;40161;39.768;2.722;2023-08-06T01:28:44;2.67;;;1.23;;
54247;SDS011;40161;39.768;2.722;2023-08-06T01:31:31;3.30;;;1.40;;
54247;SDS011;40161;39.768;2.722;2023-08-06T01:34:01;2.72;;;1.20;;
54247;SDS011;40161;39.768;2.722;2023-08-06T01:36:28;3.47;;;1.60;;
54247;SDS011;40161;39.768;2.722;2023-08-06T01:38:53;3.78;;;1.58;;
54247;SDS011;40161;39.768;2.722;2023-08-06T01:41:19;3.35;;;1.30;;
54247;SDS011;40161;39.768;2.722;2023-08-06T01:43:45;4.13;;;1.30;;
54247;SDS011;40161;39.768;2.722;2023-08-06T01:46:10;3.65;;;1.45;;
54247;SDS011;40161;39.768;2.722;2023-08-06T01:48:36;3.72;;;1.20;;
54247;SDS011;40161;39.768;2.722;2023-08-06T01:51:05;2.55;;;1.00;;
54247;SDS011;40161;39.768;2.722;2023-08-06T01:53:31;2.67;;;1.20;;
54247;SDS011;40161;39.768;2.722;2023-08-06T01:55:57;2.40;;;1.13;;
54247;SDS011;40161;39.768;2.722;2023-08-06T01:58:23;2.28;;;1.13;;
54247;SDS011;40161;39.768;2.722;2023-08-06T02:00:48;3.80;;;1.55;;
54247;SDS011;40161;39.768;2.722;2023-08-06T02:03:14;3.75;;;1.35;;
54247;SDS011;40161;39.768;2.722;2023-08-06T02:05:40;4.25;;;1.52;;
54247;SDS011;40161;39.768;2.722;2023-08-06T02:08:06;4.20;;;1.60;;
54247;SDS011;40161;39.768;2.722;2023-08-06T02:10:31;4.00;;;1.20;;
54247;SDS011;40161;39.768;2.722;2023-08-06T02:12:57;3.53;;;1.40;;
54247;SDS011;40161;39.768;2.722;2023-08-06T02:15:23;3.17;;;1.40;;
54247;SDS011;40161;39.768;2.722;2023-08-06T02:17:48;3.60;;;1.40;;
54247;SDS011;40161;39.768;2.722;2023-08-06T02:20:14;3.20;;;1.50;;
54247;SDS011;40161;39.768;2.722;2023-08-06T02:22:39;3.78;;;1.50;;
54247;SDS011;40161;39.768;2.722;2023-08-06T02:25:05;3.40;;;1.23;;
54247;SDS011;40161;39.768;2.722;2023-08-06T02:27:31;3.50;;;1.30;;
54247;SDS011;40161;39.768;2.722;2023-08-06T02:29:56;3.67;;;1.52;;
54247;SDS011;40161;39.768;2.722;2023-08-06T02:32:21;3.53;;;1.30;;
54247;SDS011;40161;39.768;2.722;2023-08-06T02:34:47;3.67;;;1.27;;
54247;SDS011;40161;39.768;2.722;2023-08-06T02:37:12;3.72;;;1.35;;
54247;SDS011;40161;39.768;2.722;2023-08-06T02:39:38;3.58;;;1.13;;
54247;SDS011;40161;39.768;2.722;2023-08-06T02:42:07;3.10;;;1.40;;
54247;SDS011;40161;39.768;2.722;2023-08-06T02:44:33;3.10;;;1.20;;
54247;SDS011;40161;39.768;2.722;2023-08-06T02:46:59;3.38;;;1.25;;
54247;SDS011;40161;39.768;2.722;2023-08-06T02:49:25;4.65;;;1.40;;
54247;SDS011;40161;39.768;2.722;2023-08-06T02:51:50;3.45;;;1.40;;
54247;SDS011;40161;39.768;2.722;2023-08-06T02:54:17;2.63;;;1.10;;
54247;SDS011;40161;39.768;2.722;2023-08-06T02:56:43;2.95;;;1.23;;
54247;SDS011;40161;39.768;2.722;2023-08-06T02:59:10;2.90;;;1.20;;
54247;SDS011;40161;39.768;2.722;2023-08-06T03:01:36;2.53;;;1.13;;
54247;SDS011;40161;39.768;2.722;2023-08-06T03:04:01;3.17;;;1.40;;
54247;SDS011;40161;39.768;2.722;2023-08-06T03:06:31;2.75;;;1.20;;
54247;SDS011;40161;39.768;2.722;2023-08-06T03:08:56;3.47;;;1.42;;
54247;SDS011;40161;39.768;2.722;2023-08-06T03:11:22;2.45;;;1.25;;
54247;SDS011;40161;39.768;2.722;2023-08-06T03:13:47;5.13;;;1.40;;
54247;SDS011;40161;39.768;2.722;2023-08-06T03:16:13;4.28;;;1.40;;
54247;SDS011;40161;39.768;2.722;2023-08-06T03:18:39;2.83;;;1.30;;
54247;SDS011;40161;39.768;2.722;2023-08-06T03:21:05;4.55;;;1.20;;
54247;SDS011;40161;39.768;2.722;2023-08-06T03:23:30;3.53;;;1.60;;
54247;SDS011;40161;39.768;2.722;2023-08-06T03:25:56;2.33;;;1.20;;
54247;SDS011;40161;39.768;2.722;2023-08-06T03:28:26;3.63;;;1.20;;
54247;SDS011;40161;39.768;2.722;2023-08-06T03:30:58;4.68;;;1.83;;
54247;SDS011;40161;39.768;2.722;2023-08-06T03:33:25;4.88;;;1.45;;
54247;SDS011;40161;39.768;2.722;2023-08-06T03:35:51;4.78;;;1.77;;
54247;SDS011;40161;39.768;2.722;2023-08-06T03:38:16;3.80;;;1.70;;
54247;SDS011;40161;39.768;2.722;2023-08-06T03:40:42;2.72;;;1.10;;
54247;SDS011;40161;39.768;2.722;2023-08-06T03:43:08;2.80;;;1.20;;
54247;SDS011;40161;39.768;2.722;2023-08-06T03:45:33;3.40;;;1.45;;
54247;SDS011;40161;39.768;2.722;2023-08-06T03:47:59;3.47;;;1.50;;
54247;SDS011;40161;39.768;2.722;2023-08-06T03:50:24;2.88;;;1.40;;
54247;SDS011;40161;39.768;2.722;2023-08-06T03:52:50;4.85;;;1.70;;
54247;SDS011;40161;39.768;2.722;2023-08-06T03:55:16;3.13;;;1.50;;
54247;SDS011;40161;39.768;2.722;2023-08-06T03:57:41;3.28;;;1.20;;
54247;SDS011;40161;39.768;2.722;2023-08-06T04:00:07;3.28;;;1.20;;
54247;SDS011;40161;39.768;2.722;2023-08-06T04:02:33;2.90;;;1.30;;
54247;SDS011;40161;39.768;2.722;2023-08-06T04:04:58;2.95;;;1.33;;
54247;SDS011;40161;39.768;2.722;2023-08-06T04:07:24;3.38;;;1.50;;
54247;SDS011;40161;39.768;2.722;2023-08-06T04:09:54;3.35;;;1.50;;
54247;SDS011;40161;39.768;2.722;2023-08-06T04:12:20;3.20;;;1.20;;
54247;SDS011;40161;39.768;2.722;2023-08-06T04:14:46;4.40;;;1.40;;
54247;SDS011;40161;39.768;2.722;2023-08-06T04:17:11;3.25;;;1.30;;
54247;SDS011;40161;39.768;2.722;2023-08-06T04:19:37;4.18;;;1.70;;
54247;SDS011;40161;39.768;2.722;2023-08-06T04:22:02;3.47;;;1.52;;
54247;SDS011;40161;39.768;2.722;2023-08-06T04:24:28;5.78;;;1.25;;
54247;SDS011;40161;39.768;2.722;2023-08-06T04:26:54;3.42;;;1.20;;
54247;SDS011;40161;39.768;2.722;2023-08-06T04:29:19;4.15;;;1.50;;
54247;SDS011;40161;39.768;2.722;2023-08-06T04:31:45;6.10;;;1.40;;
54247;SDS011;40161;39.768;2.722;2023-08-06T04:34:10;4.00;;;1.30;;
54247;SDS011;40161;39.768;2.722;2023-08-06T04:36:36;3.50;;;1.35;;
54247;SDS011;40161;39.768;2.722;2023-08-06T04:39:04;2.90;;;1.35;;
54247;SDS011;40161;39.768;2.722;2023-08-06T04:41:29;3.10;;;1.25;;
54247;SDS011;40161;39.768;2.722;2023-08-06T04:43:56;3.83;;;1.40;;
54247;SDS011;40161;39.768;2.722;2023-08-06T04:46:22;4.85;;;1.40;;
54247;SDS011;40161;39.768;2.722;2023-08-06T04:48:47;4.25;;;1.92;;
54247;SDS011;40161;39.768;2.722;2023-08-06T04:51:13;5.88;;;1.63;;
54247;SDS011;40161;39.768;2.722;2023-08-06T04:53:40;3.92;;;1.45;;
54247;SDS011;40161;39.768;2.722;2023-08-06T04:56:05;3.83;;;1.42;;
54247;SDS011;40161;39.768;2.722;2023-08-06T04:58:31;4.20;;;1.58;;
54247;SDS011;40161;39.768;2.722;2023-08-06T05:00:57;4.25;;;1.30;;
54247;SDS011;40161;39.768;2.722;2023-08-06T05:03:23;3.25;;;1.20;;
54247;SDS011;40161;39.768;2.722;2023-08-06T05:05:49;4.97;;;1.60;;
54247;SDS011;40161;39.768;2.722;2023-08-06T05:08:15;3.08;;;1.40;;
54247;SDS011;40161;39.768;2.722;2023-08-06T05:10:44;2.88;;;1.45;;
54247;SDS011;40161;39.768;2.722;2023-08-06T05:13:10;3.50;;;1.30;;
54247;SDS011;40161;39.768;2.722;2023-08-06T05:15:36;3.38;;;1.40;;
54247;SDS011;40161;39.768;2.722;2023-08-06T05:18:02;4.22;;;1.40;;
54247;SDS011;40161;39.768;2.722;2023-08-06T05:20:27;4.22;;;1.60;;
54247;SDS011;40161;39.768;2.722;2023-08-06T05:22:53;5.85;;;1.40;;
54247;SDS011;40161;39.768;2.722;2023-08-06T05:25:18;4.65;;;1.45;;
54247;SDS011;40161;39.768;2.722;2023-08-06T05:27:45;3.78;;;1.48;;
54247;SDS011;40161;39.768;2.722;2023-08-06T05:30:10;3.60;;;1.50;;
54247;SDS011;40161;39.768;2.722;2023-08-06T05:32:36;3.30;;;1.20;;
54247;SDS011;40161;39.768;2.722;2023-08-06T05:35:01;3.92;;;1.35;;
54247;SDS011;40161;39.768;2.722;2023-08-06T05:37:27;4.20;;;1.40;;
54247;SDS011;40161;39.768;2.722;2023-08-06T05:39:53;3.47;;;1.30;;
54247;SDS011;40161;39.768;2.722;2023-08-06T05:42:18;3.30;;;1.30;;
54247;SDS011;40161;39.768;2.722;2023-08-06T05:44:44;3.92;;;1.30;;
54247;SDS011;40161;39.768;2.722;2023-08-06T05:47:09;4.15;;;1.50;;
54247;SDS011;40161;39.768;2.722;2023-08-06T05:49:35;2.35;;;1.25;;
54247;SDS011;40161;39.768;2.722;2023-08-06T05:52:01;5.97;;;1.48;;
54247;SDS011;40161;39.768;2.722;2023-08-06T05:54:27;5.88;;;1.60;;
54247;SDS011;40161;39.768;2.722;2023-08-06T05:56:53;6.13;;;2.80;;
54247;SDS011;40161;39.768;2.722;2023-08-06T05:59:18;9.23;;;5.28;;
54247;SDS011;40161;39.768;2.722;2023-08-06T06:01:44;8.43;;;3.95;;
54247;SDS011;40161;39.768;2.722;2023-08-06T06:04:09;9.60;;;5.05;;
54247;SDS011;40161;39.768;2.722;2023-08-06T06:06:35;9.88;;;4.13;;
54247;SDS011;40161;39.768;2.722;2023-08-06T06:09:00;10.05;;;5.50;;
54247;SDS011;40161;39.768;2.722;2023-08-06T06:11:26;9.95;;;5.20;;
54247;SDS011;40161;39.768;2.722;2023-08-06T06:13:51;7.63;;;3.92;;
54247;SDS011;40161;39.768;2.722;2023-08-06T06:16:17;13.50;;;6.78;;
54247;SDS011;40161;39.768;2.722;2023-08-06T06:18:43;11.75;;;6.63;;
54247;SDS011;40161;39.768;2.722;2023-08-06T06:21:09;15.40;;;6.30;;
54247;SDS011;40161;39.768;2.722;2023-08-06T06:23:35;33.25;;;16.52;;
54247;SDS011;40161;39.768;2.722;2023-08-06T06:26:01;253.95;;;115.03;;
54247;SDS011;40161;39.768;2.722;2023-08-06T06:28:26;70.18;;;34.50;;
54247;SDS011;40161;39.768;2.722;2023-08-06T06:30:52;256.95;;;114.93;;
54247;SDS011;40161;39.768;2.722;2023-08-06T06:33:17;202.93;;;99.63;;
54247;SDS011;40161;39.768;2.722;2023-08-06T06:35:43;130.80;;;82.30;;
54247;SDS011;40161;39.768;2.722;2023-08-06T06:38:08;48.90;;;29.90;;
54247;SDS011;40161;39.768;2.722;2023-08-06T06:40:34;37.20;;;21.63;;
54247;SDS011;40161;39.768;2.722;2023-08-06T06:42:59;23.73;;;13.55;;
54247;SDS011;40161;39.768;2.722;2023-08-06T06:45:25;16.50;;;9.30;;
54247;SDS011;40161;39.768;2.722;2023-08-06T06:47:50;17.17;;;8.55;;
54247;SDS011;40161;39.768;2.722;2023-08-06T06:50:16;15.98;;;6.38;;
54247;SDS011;40161;39.768;2.722;2023-08-06T06:52:42;11.50;;;5.05;;
54247;SDS011;40161;39.768;2.722;2023-08-06T06:55:07;11.45;;;4.90;;
54247;SDS011;40161;39.768;2.722;2023-08-06T06:57:33;10.52;;;4.78;;
54247;SDS011;40161;39.768;2.722;2023-08-06T06:59:58;10.95;;;4.82;;
54247;SDS011;40161;39.768;2.722;2023-08-06T07:02:24;11.95;;;5.40;;
54247;SDS011;40161;39.768;2.722;2023-08-06T07:04:50;11.93;;;6.25;;
54247;SDS011;40161;39.768;2.722;2023-08-06T07:07:15;14.23;;;7.80;;
54247;SDS011;40161;39.768;2.722;2023-08-06T07:09:41;15.00;;;7.20;;
54247;SDS011;40161;39.768;2.722;2023-08-06T07:12:06;11.82;;;4.65;;
54247;SDS011;40161;39.768;2.722;2023-08-06T07:14:32;10.18;;;4.20;;
54247;SDS011;40161;39.768;2.722;2023-08-06T07:16:58;7.30;;;2.53;;
54247;SDS011;40161;39.768;2.722;2023-08-06T07:19:23;6.45;;;2.50;;
54247;SDS011;40161;39.768;2.722;2023-08-06T07:21:49;6.38;;;1.60;;
54247;SDS011;40161;39.768;2.722;2023-08-06T07:24:14;4.00;;;1.48;;
54247;SDS011;40161;39.768;2.722;2023-08-06T07:26:40;4.75;;;1.20;;
54247;SDS011;40161;39.768;2.722;2023-08-06T07:29:05;3.78;;;1.10;;
54247;SDS011;40161;39.768;2.722;2023-08-06T07:31:31;3.15;;;1.13;;
54247;SDS011;40161;39.768;2.722;2023-08-06T07:33:56;4.47;;;1.20;;
54247;SDS011;40161;39.768;2.722;2023-08-06T07:36:22;4.72;;;0.90;;
54247;SDS011;40161;39.768;2.722;2023-08-06T07:38:47;6.32;;;1.58;;
54247;SDS011;40161;39.768;2.722;2023-08-06T07:41:16;4.70;;;1.10;;
54247;SDS011;40161;39.768;2.722;2023-08-06T07:43:42;7.50;;;1.45;;
54247;SDS011;40161;39.768;2.722;2023-08-06T07:46:07;4.13;;;1.00;;
54247;SDS011;40161;39.768;2.722;2023-08-06T07:48:33;6.10;;;1.35;;
54247;SDS011;40161;39.768;2.722;2023-08-06T07:50:59;4.88;;;1.38;;
54247;SDS011;40161;39.768;2.722;2023-08-06T07:53:25;4.35;;;1.10;;
54247;SDS011;40161;39.768;2.722;2023-08-06T07:55:57;4.00;;;0.90;;
54247;SDS011;40161;39.768;2.722;2023-08-06T07:58:24;4.30;;;1.55;;
54247;SDS011;40161;39.768;2.722;2023-08-06T08:00:50;4.65;;;1.00;;
54247;SDS011;40161;39.768;2.722;2023-08-06T08:03:16;6.90;;;1.50;;
54247;SDS011;40161;39.768;2.722;2023-08-06T08:05:42;4.38;;;0.90;;
54247;SDS011;40161;39.768;2.722;2023-08-06T08:08:09;5.20;;;1.20;;
54247;SDS011;40161;39.768;2.722;2023-08-06T08:10:35;4.78;;;1.40;;
54247;SDS011;40161;39.768;2.722;2023-08-06T08:13:04;2.85;;;0.90;;
54247;SDS011;40161;39.768;2.722;2023-08-06T08:15:30;4.15;;;1.00;;
54247;SDS011;40161;39.768;2.722;2023-08-06T08:17:56;3.22;;;0.80;;
54247;SDS011;40161;39.768;2.722;2023-08-06T08:20:22;5.78;;;1.15;;
54247;SDS011;40161;39.768;2.722;2023-08-06T08:22:48;4.78;;;1.20;;
54247;SDS011;40161;39.768;2.722;2023-08-06T08:25:14;3.20;;;0.95;;
54247;SDS011;40161;39.768;2.722;2023-08-06T08:27:40;4.35;;;0.90;;
54247;SDS011;40161;39.768;2.722;2023-08-06T08:30:06;3.25;;;0.90;;
54247;SDS011;40161;39.768;2.722;2023-08-06T08:32:32;4.30;;;1.10;;
54247;SDS011;40161;39.768;2.722;2023-08-06T08:34:58;4.20;;;1.10;;
54247;SDS011;40161;39.768;2.722;2023-08-06T08:37:23;4.65;;;0.90;;
54247;SDS011;40161;39.768;2.722;2023-08-06T08:39:49;7.82;;;1.25;;
54247;SDS011;40161;39.768;2.722;2023-08-06T08:42:15;5.65;;;1.92;;
54247;SDS011;40161;39.768;2.722;2023-08-06T08:44:44;5.35;;;1.17;;
54247;SDS011;40161;39.768;2.722;2023-08-06T08:47:10;5.35;;;0.80;;
54247;SDS011;40161;39.768;2.722;2023-08-06T08:49:36;4.75;;;1.10;;
54247;SDS011;40161;39.768;2.722;2023-08-06T08:52:03;3.83;;;0.95;;
54247;SDS011;40161;39.768;2.722;2023-08-06T08:54:35;4.53;;;1.35;;
54247;SDS011;40161;39.768;2.722;2023-08-06T08:57:03;4.35;;;1.33;;
54247;SDS011;40161;39.768;2.722;2023-08-06T08:59:29;4.10;;;1.10;;
54247;SDS011;40161;39.768;2.722;2023-08-06T09:01:55;4.65;;;1.30;;
54247;SDS011;40161;39.768;2.722;2023-08-06T09:04:22;6.72;;;1.20;;
54247;SDS011;40161;39.768;2.722;2023-08-06T09:06:50;4.07;;;1.10;;
54247;SDS011;40161;39.768;2.722;2023-08-06T09:09:25;6.15;;;1.20;;
54247;SDS011;40161;39.768;2.722;2023-08-06T09:11:52;6.72;;;1.20;;
54247;SDS011;40161;39.768;2.722;2023-08-06T09:14:19;5.10;;;1.20;;
54247;SDS011;40161;39.768;2.722;2023-08-06T09:16:45;4.53;;;1.10;;
54247;SDS011;40161;39.768;2.722;2023-08-06T09:19:12;5.07;;;1.38;;
54247;SDS011;40161;39.768;2.722;2023-08-06T09:21:40;4.45;;;1.00;;
54247;SDS011;40161;39.768;2.722;2023-08-06T09:24:12;2.28;;;0.90;;
54247;SDS011;40161;39.768;2.722;2023-08-06T09:26:38;6.82;;;1.10;;
54247;SDS011;40161;39.768;2.722;2023-08-06T09:29:05;3.97;;;1.38;;
54247;SDS011;40161;39.768;2.722;2023-08-06T09:31:32;3.85;;;0.90;;
54247;SDS011;40161;39.768;2.722;2023-08-06T09:34:14;3.72;;;1.00;;
54247;SDS011;40161;39.768;2.722;2023-08-06T09:36:42;4.28;;;1.00;;
54247;SDS011;40161;39.768;2.722;2023-08-06T09:39:14;4.45;;;1.33;;
54247;SDS011;40161;39.768;2.722;2023-08-06T09:41:41;5.07;;;1.55;;
54247;SDS011;40161;39.768;2.722;2023-08-06T09:44:17;4.22;;;1.00;;
54247;SDS011;40161;39.768;2.722;2023-08-06T09:46:50;6.15;;;1.20;;
54247;SDS011;40161;39.768;2.722;2023-08-06T09:49:26;3.78;;;1.17;;
54247;SDS011;40161;39.768;2.722;2023-08-06T09:52:12;4.47;;;0.90;;
54247;SDS011;40161;39.768;2.722;2023-08-06T09:54:40;4.47;;;0.90;;
54247;SDS011;40161;39.768;2.722;2023-08-06T09:57:08;3.80;;;0.90;;
54247;SDS011;40161;39.768;2.722;2023-08-06T09:59:34;3.25;;;1.00;;
54247;SDS011;40161;39.768;2.722;2023-08-06T10:02:02;4.75;;;1.35;;
54247;SDS011;40161;39.768;2.722;2023-08-06T10:04:30;4.20;;;1.15;;
54247;SDS011;40161;39.768;2.722;2023-08-06T10:06:56;4.25;;;1.10;;
54247;SDS011;40161;39.768;2.722;2023-08-06T10:09:23;6.05;;;1.30;;
54247;SDS011;40161;39.768;2.722;2023-08-06T10:11:52;4.15;;;1.00;;
54247;SDS011;40161;39.768;2.722;2023-08-06T10:16:51;5.43;;;1.13;;
54247;SDS011;40161;39.768;2.722;2023-08-06T10:19:17;3.03;;;1.00;;
54247;SDS011;40161;39.768;2.722;2023-08-06T10:25:15;4.78;;;1.02;;
54247;SDS011;40161;39.768;2.722;2023-08-06T10:32:52;5.15;;;1.42;;
54247;SDS011;40161;39.768;2.722;2023-08-06T10:35:34;3.33;;;1.00;;
54247;SDS011;40161;39.768;2.722;2023-08-06T10:40:36;6.57;;;1.50;;
54247;SDS011;40161;39.768;2.722;2023-08-06T10:43:04;7.57;;;1.60;;
54247;SDS011;40161;39.768;2.722;2023-08-06T10:45:35;5.80;;;1.35;;
54247;SDS011;40161;39.768;2.722;2023-08-06T10:48:01;4.20;;;1.10;;
54247;SDS011;40161;39.768;2.722;2023-08-06T10:50:27;5.70;;;1.55;;
54247;SDS011;40161;39.768;2.722;2023-08-06T10:52:52;4.95;;;1.42;;
54247;SDS011;40161;39.768;2.722;2023-08-06T10:55:22;6.32;;;1.23;;
54247;SDS011;40161;39.768;2.722;2023-08-06T10:57:49;4.68;;;1.13;;
54247;SDS011;40161;39.768;2.722;2023-08-06T11:00:15;3.90;;;1.13;;
54247;SDS011;40161;39.768;2.722;2023-08-06T11:02:41;5.20;;;1.30;;
54247;SDS011;40161;39.768;2.722;2023-08-06T11:05:08;5.40;;;1.10;;
54247;SDS011;40161;39.768;2.722;2023-08-06T11:07:35;6.75;;;1.48;;
54247;SDS011;40161;39.768;2.722;2023-08-06T11:10:05;7.05;;;1.40;;
54247;SDS011;40161;39.768;2.722;2023-08-06T11:12:32;7.85;;;1.40;;
54247;SDS011;40161;39.768;2.722;2023-08-06T11:14:58;5.80;;;1.45;;
54247;SDS011;40161;39.768;2.722;2023-08-06T11:17:24;5.50;;;1.10;;
54247;SDS011;40161;39.768;2.722;2023-08-06T11:19:52;5.13;;;1.17;;
54247;SDS011;40161;39.768;2.722;2023-08-06T11:22:20;7.13;;;1.40;;
54247;SDS011;40161;39.768;2.722;2023-08-06T11:24:47;8.30;;;1.33;;
54247;SDS011;40161;39.768;2.722;2023-08-06T11:27:16;6.82;;;1.25;;
54247;SDS011;40161;39.768;2.722;2023-08-06T11:29:42;6.10;;;1.42;;
54247;SDS011;40161;39.768;2.722;2023-08-06T11:32:09;6.60;;;1.10;;
54247;SDS011;40161;39.768;2.722;2023-08-06T11:34:35;6.55;;;1.13;;
54247;SDS011;40161;39.768;2.722;2023-08-06T11:37:05;7.25;;;1.60;;
54247;SDS011;40161;39.768;2.722;2023-08-06T11:39:34;6.28;;;1.20;;
54247;SDS011;40161;39.768;2.722;2023-08-06T11:42:04;4.28;;;1.00;;
54247;SDS011;40161;39.768;2.722;2023-08-06T11:44:31;6.28;;;1.25;;
54247;SDS011;40161;39.768;2.722;2023-08-06T11:47:01;5.18;;;1.20;;
54247;SDS011;40161;39.768;2.722;2023-08-06T11:49:39;7.60;;;1.50;;
54247;SDS011;40161;39.768;2.722;2023-08-06T11:54:43;7.30;;;1.63;;
54247;SDS011;40161;39.768;2.722;2023-08-06T11:57:10;3.78;;;1.10;;
54247;SDS011;40161;39.768;2.722;2023-08-06T11:59:37;3.72;;;1.00;;
54247;SDS011;40161;39.768;2.722;2023-08-06T12:02:04;5.25;;;1.20;;
54247;SDS011;40161;39.768;2.722;2023-08-06T12:09:59;6.38;;;1.30;;
54247;SDS011;40161;39.768;2.722;2023-08-06T12:12:26;5.95;;;1.15;;
54247;SDS011;40161;39.768;2.722;2023-08-06T12:14:52;4.90;;;1.30;;
54247;SDS011;40161;39.768;2.722;2023-08-06T12:17:19;6.13;;;1.40;;
54247;SDS011;40161;39.768;2.722;2023-08-06T12:19:45;3.33;;;1.13;;
54247;SDS011;40161;39.768;2.722;2023-08-06T12:22:12;6.28;;;1.50;;
54247;SDS011;40161;39.768;2.722;2023-08-06T12:24:43;4.85;;;1.20;;
54247;SDS011;40161;39.768;2.722;2023-08-06T12:27:11;8.48;;;1.75;;
54247;SDS011;40161;39.768;2.722;2023-08-06T12:29:40;5.85;;;1.23;;
54247;SDS011;40161;39.768;2.722;2023-08-06T12:32:08;4.53;;;1.20;;
54247;SDS011;40161;39.768;2.722;2023-08-06T12:34:35;7.68;;;1.20;;
54247;SDS011;40161;39.768;2.722;2023-08-06T12:37:02;6.72;;;1.23;;
54247;SDS011;40161;39.768;2.722;2023-08-06T12:39:28;6.13;;;1.50;;
54247;SDS011;40161;39.768;2.722;2023-08-06T12:41:56;4.05;;;0.93;;
54247;SDS011;40161;39.768;2.722;2023-08-06T12:44:23;5.18;;;1.20;;
54247;SDS011;40161;39.768;2.722;2023-08-06T12:46:50;4.40;;;1.50;;
54247;SDS011;40161;39.768;2.722;2023-08-06T12:49:17;4.32;;;1.27;;
54247;SDS011;40161;39.768;2.722;2023-08-06T12:51:44;7.47;;;1.58;;
54247;SDS011;40161;39.768;2.722;2023-08-06T12:54:13;4.68;;;1.13;;
54247;SDS011;40161;39.768;2.722;2023-08-06T12:56:50;6.20;;;1.35;;
54247;SDS011;40161;39.768;2.722;2023-08-06T12:59:16;5.30;;;1.27;;
54247;SDS011;40161;39.768;2.722;2023-08-06T13:01:47;6.13;;;1.40;;
54247;SDS011;40161;39.768;2.722;2023-08-06T13:04:14;5.18;;;1.40;;
54247;SDS011;40161;39.768;2.722;2023-08-06T13:06:40;4.43;;;0.90;;
54247;SDS011;40161;39.768;2.722;2023-08-06T13:09:06;4.45;;;1.20;;
54247;SDS011;40161;39.768;2.722;2023-08-06T13:11:33;6.15;;;1.20;;
54247;SDS011;40161;39.768;2.722;2023-08-06T13:14:05;7.75;;;1.10;;
54247;SDS011;40161;39.768;2.722;2023-08-06T13:16:33;4.10;;;1.10;;
54247;SDS011;40161;39.768;2.722;2023-08-06T13:18:59;4.50;;;1.13;;
54247;SDS011;40161;39.768;2.722;2023-08-06T13:21:34;4.88;;;1.10;;
54247;SDS011;40161;39.768;2.722;2023-08-06T13:24:05;4.15;;;1.17;;
54247;SDS011;40161;39.768;2.722;2023-08-06T13:26:31;2.85;;;0.80;;
54247;SDS011;40161;39.768;2.722;2023-08-06T13:28:57;6.07;;;1.33;;
54247;SDS011;40161;39.768;2.722;2023-08-06T13:31:25;5.72;;;1.40;;
54247;SDS011;40161;39.768;2.722;2023-08-06T13:33:51;8.07;;;1.25;;
54247;SDS011;40161;39.768;2.722;2023-08-06T13:36:20;6.78;;;1.40;;
54247;SDS011;40161;39.768;2.722;2023-08-06T13:38:47;6.63;;;1.08;;
54247;SDS011;40161;39.768;2.722;2023-08-06T13:41:13;4.95;;;1.10;;
54247;SDS011;40161;39.768;2.722;2023-08-06T13:43:39;5.38;;;1.15;;
54247;SDS011;40161;39.768;2.722;2023-08-06T13:46:05;3.90;;;1.20;;
54247;SDS011;40161;39.768;2.722;2023-08-06T13:48:31;4.63;;;1.08;;
54247;SDS011;40161;39.768;2.722;2023-08-06T13:50:58;5.55;;;1.13;;
54247;SDS011;40161;39.768;2.722;2023-08-06T13:53:23;4.10;;;1.15;;
54247;SDS011;40161;39.768;2.722;2023-08-06T13:55:55;4.68;;;1.58;;
54247;SDS011;40161;39.768;2.722;2023-08-06T13:58:23;7.65;;;1.00;;
54247;SDS011;40161;39.768;2.722;2023-08-06T14:00:55;5.68;;;1.45;;
54247;SDS011;40161;39.768;2.722;2023-08-06T14:03:25;6.50;;;1.27;;
54247;SDS011;40161;39.768;2.722;2023-08-06T14:05:52;3.25;;;1.00;;
54247;SDS011;40161;39.768;2.722;2023-08-06T14:08:21;5.03;;;1.27;;
54247;SDS011;40161;39.768;2.722;2023-08-06T14:10:48;7.38;;;1.25;;
54247;SDS011;40161;39.768;2.722;2023-08-06T14:13:17;4.95;;;1.60;;
54247;SDS011;40161;39.768;2.722;2023-08-06T14:15:49;6.13;;;0.98;;
54247;SDS011;40161;39.768;2.722;2023-08-06T14:18:15;3.92;;;1.17;;
54247;SDS011;40161;39.768;2.722;2023-08-06T14:20:42;5.40;;;1.35;;
54247;SDS011;40161;39.768;2.722;2023-08-06T14:23:08;6.38;;;1.38;;
54247;SDS011;40161;39.768;2.722;2023-08-06T14:25:34;3.92;;;1.08;;
54247;SDS011;40161;39.768;2.722;2023-08-06T14:28:00;5.15;;;1.08;;
54247;SDS011;40161;39.768;2.722;2023-08-06T14:30:26;4.13;;;0.90;;
54247;SDS011;40161;39.768;2.722;2023-08-06T14:32:53;3.78;;;1.00;;
54247;SDS011;40161;39.768;2.722;2023-08-06T14:35:21;5.50;;;1.20;;
54247;SDS011;40161;39.768;2.722;2023-08-06T14:37:47;6.18;;;1.02;;
54247;SDS011;40161;39.768;2.722;2023-08-06T14:40:13;6.10;;;1.40;;
54247;SDS011;40161;39.768;2.722;2023-08-06T14:42:40;5.10;;;1.23;;
54247;SDS011;40161;39.768;2.722;2023-08-06T14:45:09;2.53;;;0.80;;
54247;SDS011;40161;39.768;2.722;2023-08-06T14:47:37;4.55;;;1.00;;
54247;SDS011;40161;39.768;2.722;2023-08-06T14:50:08;5.05;;;1.00;;
54247;SDS011;40161;39.768;2.722;2023-08-06T14:52:34;3.75;;;1.02;;
54247;SDS011;40161;39.768;2.722;2023-08-06T14:55:00;3.22;;;0.90;;
54247;SDS011;40161;39.768;2.722;2023-08-06T14:57:27;4.93;;;1.13;;
54247;SDS011;40161;39.768;2.722;2023-08-06T14:59:54;4.25;;;1.30;;
54247;SDS011;40161;39.768;2.722;2023-08-06T15:02:20;4.82;;;1.15;;
54247;SDS011;40161;39.768;2.722;2023-08-06T15:04:46;8.23;;;1.25;;
54247;SDS011;40161;39.768;2.722;2023-08-06T15:07:13;5.53;;;1.20;;
54247;SDS011;40161;39.768;2.722;2023-08-06T15:09:39;4.22;;;1.08;;
54247;SDS011;40161;39.768;2.722;2023-08-06T15:12:05;6.00;;;1.55;;